sensor_id;sensor_type;location;lat;lon;timestamp;P1;durP1;ratioP1;P2;durP2;ratioP2
27303;SDS011;14791;52.392;13.092;2022-09-09T00:00:22;2.20;;;2.20;;
27303;SDS011;14791;52.392;13.092;2022-09-09T00:03:02;1.98;;;1.98;;
27303;SDS011;14791;52.392;13.092;2022-09-09T00:05:51;2.10;;;2.10;;
27303;SDS011;14791;52.392;13.092;2022-09-09T00:08:17;2.00;;;2.00;;
27303;SDS011;14791;52.392;13.092;2022-09-09T00:10:50;2.20;;;2.20;;
27303;SDS011;14791;52.392;13.092;2022-09-09T00:13:37;2.47;;;2.40;;
27303;SDS011;14791;52.392;13.092;2022-09-09T00:16:21;2.20;;;2.20;;
27303;SDS011;14791;52.392;13.092;2022-09-09T00:22:05;1.70;;;1.70;;
27303;SDS011;14791;52.392;13.092;2022-09-09T00:27:16;2.27;;;2.17;;
27303;SDS011;14791;52.392;13.092;2022-09-09T00:32:34;2.50;;;2.40;;
27303;SDS011;14791;52.392;13.092;2022-09-09T00:35:14;2.10;;;2.10;;
27303;SDS011;14791;52.392;13.092;2022-09-09T00:37:33;2.90;;;2.80;;
27303;SDS011;14791;52.392;13.092;2022-09-09T00:40:04;2.52;;;2.52;;
27303;SDS011;14791;52.392;13.092;2022-09-09T00:42:41;2.17;;;2.17;;
27303;SDS011;14791;52.392;13.092;2022-09-09T00:45:30;2.30;;;2.30;;
27303;SDS011;14791;52.392;13.092;2022-09-09T00:48:13;2.35;;;2.35;;
27303;SDS011;14791;52.392;13.092;2022-09-09T00:56:14;2.27;;;2.27;;
27303;SDS011;14791;52.392;13.092;2022-09-09T00:58:55;2.42;;;2.42;;
27303;SDS011;14791;52.392;13.092;2022-09-09T01:01:34;2.60;;;2.60;;
27303;SDS011;14791;52.392;13.092;2022-09-09T01:04:04;1.92;;;1.92;;
27303;SDS011;14791;52.392;13.092;2022-09-09T01:06:36;2.72;;;2.62;;
27303;SDS011;14791;52.392;13.092;2022-09-09T01:09:16;2.58;;;2.47;;
27303;SDS011;14791;52.392;13.092;2022-09-09T01:11:52;2.75;;;2.75;;
27303;SDS011;14791;52.392;13.092;2022-09-09T01:14:49;2.60;;;2.60;;
27303;SDS011;14791;52.392;13.092;2022-09-09T01:17:46;2.60;;;2.60;;
27303;SDS011;14791;52.392;13.092;2022-09-09T01:23:10;2.77;;;2.77;;
27303;SDS011;14791;52.392;13.092;2022-09-09T01:28:32;2.98;;;2.87;;
27303;SDS011;14791;52.392;13.092;2022-09-09T01:31:05;2.22;;;2.22;;
27303;SDS011;14791;52.392;13.092;2022-09-09T01:33:38;2.77;;;2.75;;
27303;SDS011;14791;52.392;13.092;2022-09-09T01:36:09;2.67;;;2.65;;
27303;SDS011;14791;52.392;13.092;2022-09-09T01:38:41;2.45;;;2.35;;
27303;SDS011;14791;52.392;13.092;2022-09-09T01:41:10;2.33;;;2.33;;
27303;SDS011;14791;52.392;13.092;2022-09-09T01:43:43;2.80;;;2.70;;
27303;SDS011;14791;52.392;13.092;2022-09-09T01:46:12;2.95;;;2.87;;
27303;SDS011;14791;52.392;13.092;2022-09-09T01:48:42;2.33;;;2.33;;
27303;SDS011;14791;52.392;13.092;2022-09-09T01:51:14;2.17;;;2.17;;
27303;SDS011;14791;52.392;13.092;2022-09-09T01:53:43;2.85;;;2.77;;
27303;SDS011;14791;52.392;13.092;2022-09-09T02:02:19;2.83;;;2.72;;
27303;SDS011;14791;52.392;13.092;2022-09-09T02:07:49;2.22;;;2.22;;
27303;SDS011;14791;52.392;13.092;2022-09-09T02:10:25;2.95;;;2.85;;
27303;SDS011;14791;52.392;13.092;2022-09-09T02:13:10;2.47;;;2.42;;
27303;SDS011;14791;52.392;13.092;2022-09-09T02:15:45;2.40;;;2.40;;
27303;SDS011;14791;52.392;13.092;2022-09-09T02:18:15;2.22;;;2.22;;
27303;SDS011;14791;52.392;13.092;2022-09-09T02:20:46;2.40;;;2.40;;
27303;SDS011;14791;52.392;13.092;2022-09-09T02:23:16;2.52;;;2.50;;
27303;SDS011;14791;52.392;13.092;2022-09-09T02:25:48;2.37;;;2.37;;
27303;SDS011;14791;52.392;13.092;2022-09-09T02:28:21;2.42;;;2.37;;
27303;SDS011;14791;52.392;13.092;2022-09-09T02:30:53;2.55;;;2.47;;
27303;SDS011;14791;52.392;13.092;2022-09-09T02:33:27;2.65;;;2.55;;
27303;SDS011;14791;52.392;13.092;2022-09-09T02:35:58;2.58;;;2.58;;
27303;SDS011;14791;52.392;13.092;2022-09-09T02:38:33;2.22;;;2.17;;
27303;SDS011;14791;52.392;13.092;2022-09-09T02:41:04;2.15;;;2.15;;
27303;SDS011;14791;52.392;13.092;2022-09-09T02:43:34;2.60;;;2.60;;
27303;SDS011;14791;52.392;13.092;2022-09-09T02:49:17;2.47;;;2.47;;
27303;SDS011;14791;52.392;13.092;2022-09-09T02:51:53;2.87;;;2.77;;
27303;SDS011;14791;52.392;13.092;2022-09-09T02:54:39;2.45;;;2.45;;
27303;SDS011;14791;52.392;13.092;2022-09-09T02:57:12;2.40;;;2.40;;
27303;SDS011;14791;52.392;13.092;2022-09-09T02:59:49;2.67;;;2.65;;
27303;SDS011;14791;52.392;13.092;2022-09-09T03:02:20;2.70;;;2.60;;
27303;SDS011;14791;52.392;13.092;2022-09-09T03:04:50;2.90;;;2.80;;
27303;SDS011;14791;52.392;13.092;2022-09-09T03:07:20;2.53;;;2.53;;
27303;SDS011;14791;52.392;13.092;2022-09-09T03:09:49;2.87;;;2.77;;
27303;SDS011;14791;52.392;13.092;2022-09-09T03:12:20;2.60;;;2.60;;
27303;SDS011;14791;52.392;13.092;2022-09-09T03:14:48;2.58;;;2.58;;
27303;SDS011;14791;52.392;13.092;2022-09-09T03:17:17;2.80;;;2.80;;
27303;SDS011;14791;52.392;13.092;2022-09-09T03:19:48;2.55;;;2.47;;
27303;SDS011;14791;52.392;13.092;2022-09-09T03:22:19;2.20;;;2.20;;
27303;SDS011;14791;52.392;13.092;2022-09-09T03:24:48;2.60;;;2.50;;
27303;SDS011;14791;52.392;13.092;2022-09-09T03:27:18;2.25;;;2.25;;
27303;SDS011;14791;52.392;13.092;2022-09-09T03:29:47;2.37;;;2.37;;
27303;SDS011;14791;52.392;13.092;2022-09-09T03:32:19;2.40;;;2.40;;
27303;SDS011;14791;52.392;13.092;2022-09-09T03:34:49;2.72;;;2.62;;
27303;SDS011;14791;52.392;13.092;2022-09-09T03:37:19;2.75;;;2.75;;
27303;SDS011;14791;52.392;13.092;2022-09-09T03:39:49;2.55;;;2.55;;
27303;SDS011;14791;52.392;13.092;2022-09-09T03:42:21;2.60;;;2.50;;
27303;SDS011;14791;52.392;13.092;2022-09-09T03:44:52;2.45;;;2.45;;
27303;SDS011;14791;52.392;13.092;2022-09-09T03:47:23;2.77;;;2.70;;
27303;SDS011;14791;52.392;13.092;2022-09-09T03:49:53;2.90;;;2.87;;
27303;SDS011;14791;52.392;13.092;2022-09-09T03:52:22;2.45;;;2.40;;
27303;SDS011;14791;52.392;13.092;2022-09-09T03:54:53;2.50;;;2.50;;
27303;SDS011;14791;52.392;13.092;2022-09-09T03:57:23;2.42;;;2.42;;
27303;SDS011;14791;52.392;13.092;2022-09-09T03:59:52;1.95;;;1.85;;
27303;SDS011;14791;52.392;13.092;2022-09-09T04:02:21;2.10;;;2.10;;
27303;SDS011;14791;52.392;13.092;2022-09-09T04:04:50;2.27;;;2.27;;
27303;SDS011;14791;52.392;13.092;2022-09-09T04:07:19;2.22;;;2.22;;
27303;SDS011;14791;52.392;13.092;2022-09-09T04:09:48;2.70;;;2.60;;
27303;SDS011;14791;52.392;13.092;2022-09-09T04:12:18;2.43;;;2.33;;
27303;SDS011;14791;52.392;13.092;2022-09-09T04:14:48;2.22;;;2.22;;
27303;SDS011;14791;52.392;13.092;2022-09-09T04:17:17;2.17;;;2.17;;
27303;SDS011;14791;52.392;13.092;2022-09-09T04:19:46;1.92;;;1.92;;
27303;SDS011;14791;52.392;13.092;2022-09-09T04:22:16;2.30;;;2.30;;
27303;SDS011;14791;52.392;13.092;2022-09-09T04:24:44;2.43;;;2.40;;
27303;SDS011;14791;52.392;13.092;2022-09-09T04:27:13;2.35;;;2.35;;
27303;SDS011;14791;52.392;13.092;2022-09-09T04:29:42;2.22;;;2.22;;
27303;SDS011;14791;52.392;13.092;2022-09-09T04:32:12;2.58;;;2.47;;
27303;SDS011;14791;52.392;13.092;2022-09-09T04:34:42;2.17;;;2.17;;
27303;SDS011;14791;52.392;13.092;2022-09-09T04:37:12;2.25;;;2.15;;
27303;SDS011;14791;52.392;13.092;2022-09-09T04:39:41;2.65;;;2.50;;
27303;SDS011;14791;52.392;13.092;2022-09-09T04:42:09;2.27;;;2.27;;
27303;SDS011;14791;52.392;13.092;2022-09-09T04:44:39;2.47;;;2.37;;
27303;SDS011;14791;52.392;13.092;2022-09-09T04:47:08;3.00;;;2.80;;
27303;SDS011;14791;52.392;13.092;2022-09-09T04:49:37;2.70;;;2.70;;
27303;SDS011;14791;52.392;13.092;2022-09-09T04:52:06;3.02;;;2.83;;
27303;SDS011;14791;52.392;13.092;2022-09-09T04:54:35;2.22;;;2.22;;
27303;SDS011;14791;52.392;13.092;2022-09-09T04:57:05;2.58;;;2.47;;
27303;SDS011;14791;52.392;13.092;2022-09-09T04:59:34;2.47;;;2.37;;
27303;SDS011;14791;52.392;13.092;2022-09-09T05:02:04;2.45;;;2.45;;
27303;SDS011;14791;52.392;13.092;2022-09-09T05:04:33;2.27;;;2.27;;
27303;SDS011;14791;52.392;13.092;2022-09-09T05:07:03;2.85;;;2.83;;
27303;SDS011;14791;52.392;13.092;2022-09-09T05:09:32;2.55;;;2.47;;
27303;SDS011;14791;52.392;13.092;2022-09-09T05:12:01;2.85;;;2.58;;
27303;SDS011;14791;52.392;13.092;2022-09-09T05:14:32;2.33;;;2.22;;
27303;SDS011;14791;52.392;13.092;2022-09-09T05:17:04;2.70;;;2.60;;
27303;SDS011;14791;52.392;13.092;2022-09-09T05:19:33;2.60;;;2.50;;
27303;SDS011;14791;52.392;13.092;2022-09-09T05:22:02;2.60;;;2.60;;
27303;SDS011;14791;52.392;13.092;2022-09-09T05:24:33;2.75;;;2.40;;
27303;SDS011;14791;52.392;13.092;2022-09-09T05:27:04;2.75;;;2.70;;
27303;SDS011;14791;52.392;13.092;2022-09-09T05:29:33;2.85;;;2.75;;
27303;SDS011;14791;52.392;13.092;2022-09-09T05:32:03;2.98;;;2.87;;
27303;SDS011;14791;52.392;13.092;2022-09-09T05:34:32;2.75;;;2.65;;
27303;SDS011;14791;52.392;13.092;2022-09-09T05:37:01;2.40;;;2.40;;
27303;SDS011;14791;52.392;13.092;2022-09-09T05:39:31;2.10;;;2.00;;
27303;SDS011;14791;52.392;13.092;2022-09-09T05:42:00;2.42;;;2.33;;
27303;SDS011;14791;52.392;13.092;2022-09-09T05:44:32;2.50;;;2.30;;
27303;SDS011;14791;52.392;13.092;2022-09-09T05:47:02;2.22;;;2.22;;
27303;SDS011;14791;52.392;13.092;2022-09-09T05:49:31;2.25;;;2.15;;
27303;SDS011;14791;52.392;13.092;2022-09-09T05:52:00;2.55;;;2.30;;
27303;SDS011;14791;52.392;13.092;2022-09-09T05:54:30;1.87;;;1.77;;
27303;SDS011;14791;52.392;13.092;2022-09-09T05:57:00;1.77;;;1.77;;
27303;SDS011;14791;52.392;13.092;2022-09-09T05:59:29;1.92;;;1.82;;
27303;SDS011;14791;52.392;13.092;2022-09-09T06:01:59;1.67;;;1.67;;
27303;SDS011;14791;52.392;13.092;2022-09-09T06:04:32;2.12;;;2.02;;
27303;SDS011;14791;52.392;13.092;2022-09-09T06:07:02;2.15;;;2.05;;
27303;SDS011;14791;52.392;13.092;2022-09-09T06:09:31;2.22;;;2.15;;
27303;SDS011;14791;52.392;13.092;2022-09-09T06:12:00;2.02;;;2.02;;
27303;SDS011;14791;52.392;13.092;2022-09-09T06:14:30;2.30;;;2.20;;
27303;SDS011;14791;52.392;13.092;2022-09-09T06:16:59;2.30;;;2.17;;
27303;SDS011;14791;52.392;13.092;2022-09-09T06:19:29;1.40;;;1.40;;
27303;SDS011;14791;52.392;13.092;2022-09-09T06:22:19;1.80;;;1.80;;
27303;SDS011;14791;52.392;13.092;2022-09-09T06:24:48;2.00;;;1.90;;
27303;SDS011;14791;52.392;13.092;2022-09-09T06:27:18;1.55;;;1.55;;
27303;SDS011;14791;52.392;13.092;2022-09-09T06:29:47;2.10;;;2.00;;
27303;SDS011;14791;52.392;13.092;2022-09-09T06:32:16;2.08;;;1.90;;
27303;SDS011;14791;52.392;13.092;2022-09-09T06:34:45;3.12;;;1.70;;
27303;SDS011;14791;52.392;13.092;2022-09-09T06:37:16;3.45;;;2.22;;
27303;SDS011;14791;52.392;13.092;2022-09-09T06:39:47;2.20;;;2.20;;
27303;SDS011;14791;52.392;13.092;2022-09-09T06:42:16;1.65;;;1.55;;
27303;SDS011;14791;52.392;13.092;2022-09-09T06:44:47;2.75;;;1.75;;
27303;SDS011;14791;52.392;13.092;2022-09-09T06:47:18;1.80;;;1.80;;
27303;SDS011;14791;52.392;13.092;2022-09-09T06:49:47;1.62;;;1.60;;
27303;SDS011;14791;52.392;13.092;2022-09-09T06:52:18;2.37;;;2.27;;
27303;SDS011;14791;52.392;13.092;2022-09-09T06:54:47;1.75;;;1.75;;
27303;SDS011;14791;52.392;13.092;2022-09-09T06:57:17;1.75;;;1.65;;
27303;SDS011;14791;52.392;13.092;2022-09-09T06:59:46;1.98;;;1.85;;
27303;SDS011;14791;52.392;13.092;2022-09-09T07:02:15;1.47;;;1.42;;
27303;SDS011;14791;52.392;13.092;2022-09-09T07:04:44;1.70;;;1.70;;
27303;SDS011;14791;52.392;13.092;2022-09-09T07:07:14;1.85;;;1.70;;
27303;SDS011;14791;52.392;13.092;2022-09-09T07:09:44;2.08;;;1.98;;
27303;SDS011;14791;52.392;13.092;2022-09-09T07:12:13;2.12;;;1.92;;
27303;SDS011;14791;52.392;13.092;2022-09-09T07:14:44;1.67;;;1.67;;
27303;SDS011;14791;52.392;13.092;2022-09-09T07:17:13;2.10;;;1.98;;
27303;SDS011;14791;52.392;13.092;2022-09-09T07:19:42;1.70;;;1.60;;
27303;SDS011;14791;52.392;13.092;2022-09-09T07:22:11;1.32;;;1.32;;
27303;SDS011;14791;52.392;13.092;2022-09-09T07:24:40;1.77;;;1.70;;
27303;SDS011;14791;52.392;13.092;2022-09-09T07:27:09;1.55;;;1.52;;
27303;SDS011;14791;52.392;13.092;2022-09-09T07:29:39;2.05;;;1.40;;
27303;SDS011;14791;52.392;13.092;2022-09-09T07:32:08;1.52;;;1.37;;
27303;SDS011;14791;52.392;13.092;2022-09-09T07:34:37;1.35;;;1.35;;
27303;SDS011;14791;52.392;13.092;2022-09-09T07:37:06;1.45;;;1.35;;
27303;SDS011;14791;52.392;13.092;2022-09-09T07:39:37;1.55;;;1.55;;
27303;SDS011;14791;52.392;13.092;2022-09-09T07:42:07;1.45;;;1.45;;
27303;SDS011;14791;52.392;13.092;2022-09-09T07:44:37;1.42;;;1.32;;
27303;SDS011;14791;52.392;13.092;2022-09-09T07:47:08;1.42;;;1.42;;
27303;SDS011;14791;52.392;13.092;2022-09-09T07:49:41;1.60;;;1.50;;
27303;SDS011;14791;52.392;13.092;2022-09-09T07:52:12;1.20;;;1.20;;
27303;SDS011;14791;52.392;13.092;2022-09-09T07:54:43;1.35;;;1.30;;
27303;SDS011;14791;52.392;13.092;2022-09-09T07:57:13;1.20;;;1.15;;
27303;SDS011;14791;52.392;13.092;2022-09-09T07:59:43;1.25;;;1.25;;
27303;SDS011;14791;52.392;13.092;2022-09-09T08:02:12;1.30;;;1.22;;
27303;SDS011;14791;52.392;13.092;2022-09-09T08:04:42;1.15;;;1.10;;
27303;SDS011;14791;52.392;13.092;2022-09-09T08:07:11;1.32;;;1.22;;
27303;SDS011;14791;52.392;13.092;2022-09-09T08:09:42;1.30;;;1.30;;
27303;SDS011;14791;52.392;13.092;2022-09-09T08:12:13;1.40;;;1.27;;
27303;SDS011;14791;52.392;13.092;2022-09-09T08:14:42;1.10;;;1.10;;
27303;SDS011;14791;52.392;13.092;2022-09-09T08:17:11;1.62;;;1.62;;
27303;SDS011;14791;52.392;13.092;2022-09-09T08:19:40;1.30;;;1.30;;
27303;SDS011;14791;52.392;13.092;2022-09-09T08:22:10;1.10;;;1.10;;
27303;SDS011;14791;52.392;13.092;2022-09-09T08:24:39;1.02;;;1.02;;
27303;SDS011;14791;52.392;13.092;2022-09-09T08:27:09;1.25;;;1.20;;
27303;SDS011;14791;52.392;13.092;2022-09-09T08:29:38;1.27;;;1.27;;
27303;SDS011;14791;52.392;13.092;2022-09-09T08:32:07;1.30;;;1.30;;
27303;SDS011;14791;52.392;13.092;2022-09-09T08:34:36;1.05;;;1.05;;
27303;SDS011;14791;52.392;13.092;2022-09-09T08:37:07;1.20;;;1.20;;
27303;SDS011;14791;52.392;13.092;2022-09-09T08:39:37;1.30;;;1.30;;
27303;SDS011;14791;52.392;13.092;2022-09-09T08:47:46;1.47;;;1.05;;
27303;SDS011;14791;52.392;13.092;2022-09-09T08:50:32;2.25;;;1.20;;
27303;SDS011;14791;52.392;13.092;2022-09-09T08:53:11;1.47;;;1.32;;
27303;SDS011;14791;52.392;13.092;2022-09-09T08:55:53;1.37;;;1.02;;
27303;SDS011;14791;52.392;13.092;2022-09-09T08:58:32;1.07;;;1.02;;
27303;SDS011;14791;52.392;13.092;2022-09-09T09:04:01;1.17;;;1.17;;
27303;SDS011;14791;52.392;13.092;2022-09-09T09:07:03;1.30;;;1.12;;
27303;SDS011;14791;52.392;13.092;2022-09-09T09:12:35;1.27;;;1.20;;
27303;SDS011;14791;52.392;13.092;2022-09-09T09:15:10;1.60;;;1.60;;
27303;SDS011;14791;52.392;13.092;2022-09-09T09:17:37;1.07;;;1.07;;
27303;SDS011;14791;52.392;13.092;2022-09-09T09:20:11;1.10;;;1.10;;
27303;SDS011;14791;52.392;13.092;2022-09-09T09:22:49;1.02;;;1.02;;
27303;SDS011;14791;52.392;13.092;2022-09-09T09:25:23;1.27;;;1.25;;
27303;SDS011;14791;52.392;13.092;2022-09-09T09:28:18;0.90;;;0.90;;
27303;SDS011;14791;52.392;13.092;2022-09-09T09:30:54;1.40;;;1.30;;
27303;SDS011;14791;52.392;13.092;2022-09-09T09:33:33;1.25;;;1.00;;
27303;SDS011;14791;52.392;13.092;2022-09-09T09:36:32;1.75;;;1.10;;
27303;SDS011;14791;52.392;13.092;2022-09-09T09:38:54;0.60;;;0.60;;
27303;SDS011;14791;52.392;13.092;2022-09-09T09:41:31;0.90;;;0.90;;
27303;SDS011;14791;52.392;13.092;2022-09-09T09:44:03;0.95;;;0.95;;
27303;SDS011;14791;52.392;13.092;2022-09-09T09:46:34;0.93;;;0.93;;
27303;SDS011;14791;52.392;13.092;2022-09-09T09:49:09;0.90;;;0.90;;
27303;SDS011;14791;52.392;13.092;2022-09-09T09:51:38;1.00;;;1.00;;
27303;SDS011;14791;52.392;13.092;2022-09-09T09:54:20;1.20;;;1.10;;
27303;SDS011;14791;52.392;13.092;2022-09-09T09:56:54;0.88;;;0.88;;
27303;SDS011;14791;52.392;13.092;2022-09-09T10:02:15;0.85;;;0.60;;
27303;SDS011;14791;52.392;13.092;2022-09-09T10:05:05;3.17;;;0.78;;
27303;SDS011;14791;52.392;13.092;2022-09-09T10:07:35;1.00;;;0.95;;
27303;SDS011;14791;52.392;13.092;2022-09-09T10:10:05;1.00;;;1.00;;
27303;SDS011;14791;52.392;13.092;2022-09-09T10:12:40;0.80;;;0.80;;
27303;SDS011;14791;52.392;13.092;2022-09-09T10:15:26;0.82;;;0.80;;
27303;SDS011;14791;52.392;13.092;2022-09-09T10:18:13;0.72;;;0.72;;
27303;SDS011;14791;52.392;13.092;2022-09-09T10:23:38;0.80;;;0.80;;
27303;SDS011;14791;52.392;13.092;2022-09-09T10:26:30;1.10;;;1.10;;
27303;SDS011;14791;52.392;13.092;2022-09-09T10:34:46;1.00;;;1.00;;
27303;SDS011;14791;52.392;13.092;2022-09-09T10:37:35;2.75;;;1.00;;
27303;SDS011;14791;52.392;13.092;2022-09-09T10:42:58;1.00;;;1.00;;
27303;SDS011;14791;52.392;13.092;2022-09-09T10:45:49;0.78;;;0.78;;
27303;SDS011;14791;52.392;13.092;2022-09-09T10:53:35;1.02;;;1.02;;
27303;SDS011;14791;52.392;13.092;2022-09-09T10:56:16;0.90;;;0.80;;
27303;SDS011;14791;52.392;13.092;2022-09-09T10:58:48;0.90;;;0.75;;
27303;SDS011;14791;52.392;13.092;2022-09-09T11:01:23;0.65;;;0.65;;
27303;SDS011;14791;52.392;13.092;2022-09-09T11:04:15;1.20;;;1.20;;
27303;SDS011;14791;52.392;13.092;2022-09-09T11:06:54;0.80;;;0.80;;
27303;SDS011;14791;52.392;13.092;2022-09-09T11:09:25;0.70;;;0.70;;
27303;SDS011;14791;52.392;13.092;2022-09-09T11:11:56;0.60;;;0.60;;
27303;SDS011;14791;52.392;13.092;2022-09-09T11:14:34;0.75;;;0.75;;
27303;SDS011;14791;52.392;13.092;2022-09-09T11:17:20;0.85;;;0.85;;
27303;SDS011;14791;52.392;13.092;2022-09-09T11:19:51;0.80;;;0.80;;
27303;SDS011;14791;52.392;13.092;2022-09-09T11:25:00;1.22;;;1.17;;
27303;SDS011;14791;52.392;13.092;2022-09-09T11:32:59;1.10;;;1.10;;
27303;SDS011;14791;52.392;13.092;2022-09-09T11:35:30;1.15;;;1.10;;
27303;SDS011;14791;52.392;13.092;2022-09-09T11:38:15;0.70;;;0.70;;
27303;SDS011;14791;52.392;13.092;2022-09-09T11:40:54;0.70;;;0.70;;
27303;SDS011;14791;52.392;13.092;2022-09-09T11:46:10;0.78;;;0.78;;
27303;SDS011;14791;52.392;13.092;2022-09-09T11:48:43;0.90;;;0.70;;
27303;SDS011;14791;52.392;13.092;2022-09-09T11:51:25;0.55;;;0.55;;
27303;SDS011;14791;52.392;13.092;2022-09-09T11:53:50;0.80;;;0.80;;
27303;SDS011;14791;52.392;13.092;2022-09-09T11:56:28;0.60;;;0.60;;
27303;SDS011;14791;52.392;13.092;2022-09-09T11:59:06;0.65;;;0.65;;
27303;SDS011;14791;52.392;13.092;2022-09-09T12:01:53;0.55;;;0.50;;
27303;SDS011;14791;52.392;13.092;2022-09-09T12:12:36;0.90;;;0.90;;
27303;SDS011;14791;52.392;13.092;2022-09-09T12:17:46;0.57;;;0.57;;
27303;SDS011;14791;52.392;13.092;2022-09-09T12:20:21;0.60;;;0.60;;
27303;SDS011;14791;52.392;13.092;2022-09-09T12:23:08;0.85;;;0.85;;
27303;SDS011;14791;52.392;13.092;2022-09-09T12:28:43;0.70;;;0.70;;
27303;SDS011;14791;52.392;13.092;2022-09-09T12:31:15;0.50;;;0.50;;
27303;SDS011;14791;52.392;13.092;2022-09-09T12:33:55;1.37;;;0.80;;
27303;SDS011;14791;52.392;13.092;2022-09-09T12:36:28;0.75;;;0.68;;
27303;SDS011;14791;52.392;13.092;2022-09-09T12:38:59;0.80;;;0.80;;
27303;SDS011;14791;52.392;13.092;2022-09-09T12:41:30;0.80;;;0.80;;
27303;SDS011;14791;52.392;13.092;2022-09-09T12:44:03;0.70;;;0.70;;
27303;SDS011;14791;52.392;13.092;2022-09-09T12:46:40;0.80;;;0.75;;
27303;SDS011;14791;52.392;13.092;2022-09-09T12:49:24;0.65;;;0.65;;
27303;SDS011;14791;52.392;13.092;2022-09-09T12:51:55;0.80;;;0.80;;
27303;SDS011;14791;52.392;13.092;2022-09-09T12:54:25;0.80;;;0.80;;
27303;SDS011;14791;52.392;13.092;2022-09-09T12:56:55;0.80;;;0.80;;
27303;SDS011;14791;52.392;13.092;2022-09-09T12:59:26;0.78;;;0.78;;
27303;SDS011;14791;52.392;13.092;2022-09-09T13:01:57;0.85;;;0.85;;
27303;SDS011;14791;52.392;13.092;2022-09-09T13:04:27;0.80;;;0.80;;
27303;SDS011;14791;52.392;13.092;2022-09-09T13:07:05;0.80;;;0.80;;
27303;SDS011;14791;52.392;13.092;2022-09-09T13:09:37;1.00;;;0.90;;
27303;SDS011;14791;52.392;13.092;2022-09-09T13:12:07;0.60;;;0.60;;
27303;SDS011;14791;52.392;13.092;2022-09-09T13:14:40;0.80;;;0.80;;
27303;SDS011;14791;52.392;13.092;2022-09-09T13:17:20;1.07;;;1.07;;
27303;SDS011;14791;52.392;13.092;2022-09-09T13:19:51;0.60;;;0.50;;
27303;SDS011;14791;52.392;13.092;2022-09-09T13:27:33;0.78;;;0.78;;
27303;SDS011;14791;52.392;13.092;2022-09-09T13:30:27;0.70;;;0.70;;
27303;SDS011;14791;52.392;13.092;2022-09-09T13:36:03;0.60;;;0.60;;
27303;SDS011;14791;52.392;13.092;2022-09-09T13:38:53;1.95;;;0.90;;
27303;SDS011;14791;52.392;13.092;2022-09-09T13:41:28;0.70;;;0.70;;
27303;SDS011;14791;52.392;13.092;2022-09-09T13:43:58;0.72;;;0.72;;
27303;SDS011;14791;52.392;13.092;2022-09-09T13:46:38;1.00;;;1.00;;
27303;SDS011;14791;52.392;13.092;2022-09-09T13:51:42;0.80;;;0.80;;
27303;SDS011;14791;52.392;13.092;2022-09-09T13:54:14;0.72;;;0.72;;
27303;SDS011;14791;52.392;13.092;2022-09-09T13:56:44;0.65;;;0.65;;
27303;SDS011;14791;52.392;13.092;2022-09-09T13:59:14;0.75;;;0.75;;
27303;SDS011;14791;52.392;13.092;2022-09-09T14:01:47;0.90;;;0.78;;
27303;SDS011;14791;52.392;13.092;2022-09-09T14:04:19;0.88;;;0.68;;
27303;SDS011;14791;52.392;13.092;2022-09-09T14:06:49;0.65;;;0.65;;
27303;SDS011;14791;52.392;13.092;2022-09-09T14:09:18;0.90;;;0.90;;
27303;SDS011;14791;52.392;13.092;2022-09-09T14:11:47;0.80;;;0.80;;
27303;SDS011;14791;52.392;13.092;2022-09-09T14:14:16;0.60;;;0.60;;
27303;SDS011;14791;52.392;13.092;2022-09-09T14:16:45;0.60;;;0.60;;
27303;SDS011;14791;52.392;13.092;2022-09-09T14:19:14;0.80;;;0.80;;
27303;SDS011;14791;52.392;13.092;2022-09-09T14:21:43;0.90;;;0.90;;
27303;SDS011;14791;52.392;13.092;2022-09-09T14:24:12;1.10;;;0.98;;
27303;SDS011;14791;52.392;13.092;2022-09-09T14:26:41;0.80;;;0.80;;
27303;SDS011;14791;52.392;13.092;2022-09-09T14:29:10;0.55;;;0.55;;
27303;SDS011;14791;52.392;13.092;2022-09-09T14:31:38;0.50;;;0.50;;
27303;SDS011;14791;52.392;13.092;2022-09-09T14:34:07;0.62;;;0.62;;
27303;SDS011;14791;52.392;13.092;2022-09-09T14:36:38;0.60;;;0.60;;
27303;SDS011;14791;52.392;13.092;2022-09-09T14:39:07;0.60;;;0.60;;
27303;SDS011;14791;52.392;13.092;2022-09-09T14:41:36;0.90;;;0.80;;
27303;SDS011;14791;52.392;13.092;2022-09-09T14:44:05;0.70;;;0.70;;
27303;SDS011;14791;52.392;13.092;2022-09-09T14:46:35;1.90;;;1.90;;
27303;SDS011;14791;52.392;13.092;2022-09-09T14:49:04;0.75;;;0.75;;
27303;SDS011;14791;52.392;13.092;2022-09-09T14:51:33;1.10;;;0.80;;
27303;SDS011;14791;52.392;13.092;2022-09-09T14:54:02;0.80;;;0.80;;
27303;SDS011;14791;52.392;13.092;2022-09-09T14:56:31;0.80;;;0.80;;
27303;SDS011;14791;52.392;13.092;2022-09-09T14:59:02;1.10;;;0.70;;
27303;SDS011;14791;52.392;13.092;2022-09-09T15:01:31;0.70;;;0.70;;
27303;SDS011;14791;52.392;13.092;2022-09-09T15:04:02;0.78;;;0.78;;
27303;SDS011;14791;52.392;13.092;2022-09-09T15:06:33;0.70;;;0.70;;
27303;SDS011;14791;52.392;13.092;2022-09-09T15:09:04;0.68;;;0.68;;
27303;SDS011;14791;52.392;13.092;2022-09-09T15:11:34;0.95;;;0.90;;
27303;SDS011;14791;52.392;13.092;2022-09-09T15:14:05;1.02;;;1.02;;
27303;SDS011;14791;52.392;13.092;2022-09-09T15:16:35;0.93;;;0.93;;
27303;SDS011;14791;52.392;13.092;2022-09-09T15:19:05;0.80;;;0.80;;
27303;SDS011;14791;52.392;13.092;2022-09-09T15:21:36;0.90;;;0.90;;
27303;SDS011;14791;52.392;13.092;2022-09-09T15:24:05;2.08;;;1.07;;
27303;SDS011;14791;52.392;13.092;2022-09-09T15:26:35;0.93;;;0.93;;
27303;SDS011;14791;52.392;13.092;2022-09-09T15:29:05;1.00;;;1.00;;
27303;SDS011;14791;52.392;13.092;2022-09-09T15:31:35;0.95;;;0.90;;
27303;SDS011;14791;52.392;13.092;2022-09-09T15:34:05;0.80;;;0.80;;
27303;SDS011;14791;52.392;13.092;2022-09-09T15:36:36;2.05;;;1.40;;
27303;SDS011;14791;52.392;13.092;2022-09-09T15:39:07;1.05;;;1.05;;
27303;SDS011;14791;52.392;13.092;2022-09-09T15:41:42;0.98;;;0.98;;
27303;SDS011;14791;52.392;13.092;2022-09-09T15:44:12;0.93;;;0.93;;
27303;SDS011;14791;52.392;13.092;2022-09-09T15:46:43;1.05;;;1.05;;
27303;SDS011;14791;52.392;13.092;2022-09-09T15:49:15;1.27;;;1.27;;
27303;SDS011;14791;52.392;13.092;2022-09-09T15:51:46;1.35;;;1.35;;
27303;SDS011;14791;52.392;13.092;2022-09-09T15:54:17;1.25;;;1.25;;
27303;SDS011;14791;52.392;13.092;2022-09-09T15:56:51;1.20;;;1.17;;
27303;SDS011;14791;52.392;13.092;2022-09-09T15:59:24;1.72;;;1.72;;
27303;SDS011;14791;52.392;13.092;2022-09-09T16:01:55;2.42;;;1.90;;
27303;SDS011;14791;52.392;13.092;2022-09-09T16:04:26;1.87;;;1.82;;
27303;SDS011;14791;52.392;13.092;2022-09-09T16:06:57;1.45;;;1.42;;
27303;SDS011;14791;52.392;13.092;2022-09-09T16:09:28;0.98;;;0.98;;
27303;SDS011;14791;52.392;13.092;2022-09-09T16:11:58;1.62;;;1.20;;
27303;SDS011;14791;52.392;13.092;2022-09-09T16:14:35;1.75;;;1.65;;
27303;SDS011;14791;52.392;13.092;2022-09-09T16:17:05;1.40;;;1.40;;
27303;SDS011;14791;52.392;13.092;2022-09-09T16:19:35;1.40;;;1.30;;
27303;SDS011;14791;52.392;13.092;2022-09-09T16:22:04;2.05;;;1.95;;
27303;SDS011;14791;52.392;13.092;2022-09-09T16:24:33;2.17;;;2.08;;
27303;SDS011;14791;52.392;13.092;2022-09-09T16:27:02;1.60;;;1.60;;
27303;SDS011;14791;52.392;13.092;2022-09-09T16:29:34;1.87;;;1.85;;
27303;SDS011;14791;52.392;13.092;2022-09-09T16:32:03;1.60;;;1.60;;
27303;SDS011;14791;52.392;13.092;2022-09-09T16:34:32;1.70;;;1.65;;
27303;SDS011;14791;52.392;13.092;2022-09-09T16:37:01;2.00;;;1.90;;
27303;SDS011;14791;52.392;13.092;2022-09-09T16:39:30;2.45;;;2.35;;
27303;SDS011;14791;52.392;13.092;2022-09-09T16:41:59;2.87;;;2.77;;